TimeCDT,TemperatureF,Dew PointF,Humidity,Sea Level PressureIn,VisibilityMPH,Wind Direction,Wind SpeedMPH,Gust SpeedMPH,PrecipitationIn,Events,Conditions,WindDirDegrees,DateUTC
12:53 AM,75.9,59.0,56,29.90,10.0,SSE,13.8,-,N/A,,Clear,150,2013-07-06 05:53:00
1:53 AM,75.0,59.0,57,29.90,10.0,SSE,11.5,-,N/A,,Clear,150,2013-07-06 06:53:00
2:53 AM,72.0,60.1,66,29.91,10.0,SSE,3.5,-,N/A,,Clear,150,2013-07-06 07:53:00
3:53 AM,70.0,61.0,73,29.91,10.0,SSE,4.6,-,N/A,,Clear,150,2013-07-06 08:53:00
4:53 AM,70.0,61.0,73,29.91,10.0,South,6.9,-,N/A,,Clear,170,2013-07-06 09:53:00
5:53 AM,69.1,61.0,75,29.93,10.0,South,5.8,-,N/A,,Clear,180,2013-07-06 10:53:00
6:53 AM,71.1,61.0,70,29.94,10.0,South,6.9,-,N/A,,Clear,170,2013-07-06 11:53:00
7:53 AM,73.0,61.0,66,29.94,10.0,South,9.2,-,N/A,,Mostly Cloudy,170,2013-07-06 12:53:00
8:53 AM,77.0,61.0,58,29.94,10.0,SSW,10.4,-,N/A,,Overcast,200,2013-07-06 13:53:00
9:53 AM,75.0,64.0,69,29.93,10.0,South,10.4,-,0.00,Rain,Light Rain,170,2013-07-06 14:53:00
10:53 AM,78.1,64.0,62,29.91,10.0,South,9.2,-,N/A,,Clear,170,2013-07-06 15:53:00
11:53 AM,84.9,64.9,51,29.89,10.0,South,13.8,20.7,N/A,,Clear,180,2013-07-06 16:53:00
12:53 PM,87.1,64.0,46,29.88,10.0,South,16.1,21.9,N/A,,Clear,170,2013-07-06 17:53:00
1:53 PM,89.1,64.0,43,29.86,10.0,South,18.4,23.0,N/A,,Clear,170,2013-07-06 18:53:00
2:53 PM,89.1,64.9,45,29.86,10.0,South,16.1,23.0,N/A,,Clear,190,2013-07-06 19:53:00
3:53 PM,90.0,63.0,40,29.86,10.0,South,20.7,26.5,N/A,,Clear,190,2013-07-06 20:53:00
4:53 PM,89.1,64.0,43,29.86,10.0,SSW,15.0,24.2,N/A,,Clear,200,2013-07-06 21:53:00
5:53 PM,84.0,64.0,51,29.86,10.0,SSW,10.4,19.6,N/A,,Clear,210,2013-07-06 22:53:00
6:53 PM,82.9,63.0,51,29.87,10.0,SSW,17.3,20.7,N/A,,Clear,200,2013-07-06 23:53:00
7:11 PM,82.4,64.4,54,29.88,10.0,South,11.5,-,N/A,,Partly Cloudy,170,2013-07-07 00:11:00
7:53 PM,81.0,64.9,58,29.86,10.0,South,10.4,-,N/A,,Partly Cloudy,170,2013-07-07 00:53:00
8:53 PM,80.1,64.9,60,29.86,10.0,South,13.8,-,N/A,,Mostly Cloudy,170,2013-07-07 01:53:00
9:53 PM,79.0,63.0,58,29.88,10.0,South,11.5,-,N/A,,Scattered Clouds,180,2013-07-07 02:53:00
10:53 PM,75.0,64.9,71,29.89,8.0,SSE,10.4,-,0.02,Rain,Light Rain,160,2013-07-07 03:53:00
11:53 PM,73.9,64.9,73,29.89,10.0,SSE,10.4,-,0.00,,Overcast,150,2013-07-07 04:53:00